Time;durP1;ratioP1;P1;durP2;ratioP2;P2;SDS_P1;SDS_P2;PMS_P1;PMS_P2;Temp;Humidity;BMP_temperature;BMP_pressure;BME280_temperature;BME280_humidity;BME280_pressure;Samples;Min_cycle;Max_cycle;Signal;HPM_P1;HPM_P2
2023/08/20 00:02:03;;;;;;;8.82;6.85;;;;;;;23.55;66.49;97028.50;4939142;29;20103;-80
2023/08/20 00:04:47;;;;;;;10.77;6.75;;;;;;;23.54;66.60;97026.88;4938828;29;20044;-80
2023/08/20 00:07:18;;;;;;;7.22;6.00;;;;;;;23.54;66.31;97026.88;4939103;29;20056;-80
2023/08/20 00:09:48;;;;;;;11.73;6.63;;;;;;;23.54;66.22;97028.72;4938128;29;20051;-80
2023/08/20 00:12:20;;;;;;;6.95;6.00;;;;;;;23.52;66.03;97036.16;4923360;29;20107;-80
2023/08/20 00:14:58;;;;;;;7.00;6.20;;;;;;;23.50;66.45;97032.97;4939114;29;20111;-79
2023/08/20 00:17:31;;;;;;;9.10;6.78;;;;;;;23.47;66.43;97036.13;4937507;29;20058;-80
2023/08/20 00:20:10;;;;;;;8.68;6.43;;;;;;;23.45;66.68;97042.50;4937011;29;20052;-80
2023/08/20 00:22:41;;;;;;;10.88;6.53;;;;;;;23.42;66.83;97035.03;4936039;29;20071;-80
2023/08/20 00:25:12;;;;;;;8.60;6.03;;;;;;;23.40;66.77;97039.81;4920032;29;20112;-80
2023/08/20 00:27:48;;;;;;;8.68;6.72;;;;;;;23.36;67.09;97044.03;4938481;29;20064;-80
2023/08/20 00:30:18;;;;;;;10.88;6.93;;;;;;;23.33;67.20;97039.22;4938224;29;20108;-79
2023/08/20 00:32:52;;;;;;;12.30;6.70;;;;;;;23.29;67.51;97046.09;4936818;29;20091;-80
2023/08/20 00:35:26;;;;;;;7.68;6.88;;;;;;;23.28;67.46;97047.13;4937134;29;20514;-80
2023/08/20 00:37:58;;;;;;;10.50;6.40;;;;;;;23.27;67.50;97045.53;4937674;29;20060;-80
2023/08/20 00:40:29;;;;;;;12.65;6.90;;;;;;;23.28;67.43;97047.13;4936213;29;20052;-80
2023/08/20 00:43:01;;;;;;;10.33;6.47;;;;;;;23.28;67.50;97049.81;4936181;29;20116;-80
2023/08/20 00:45:33;;;;;;;8.93;6.53;;;;;;;23.26;67.82;97053.78;4938342;29;20370;-80
2023/08/20 00:48:10;;;;;;;7.30;6.15;;;;;;;23.22;67.97;97053.47;4938266;29;20067;-79
2023/08/20 00:50:48;;;;;;;8.52;6.50;;;;;;;23.16;68.61;97055.28;4938336;29;20071;-79
2023/08/20 00:53:22;;;;;;;9.20;6.50;;;;;;;23.11;68.17;97060.56;4937519;29;20052;-80
2023/08/20 00:55:57;;;;;;;9.10;6.15;;;;;;;23.07;68.57;97063.94;4937948;29;20052;-80
2023/08/20 00:58:28;;;;;;;8.43;7.20;;;;;;;23.03;68.83;97063.66;4936598;29;20359;-80
2023/08/20 01:01:01;;;;;;;9.07;6.97;;;;;;;22.98;69.00;97064.41;4936089;29;20104;-80
2023/08/20 01:03:32;;;;;;;10.60;6.55;;;;;;;22.92;69.37;97065.38;4919245;29;20051;-80
2023/08/20 01:06:14;;;;;;;11.85;7.05;;;;;;;22.89;69.91;97068.53;4936336;29;20052;-80
2023/08/20 01:08:50;;;;;;;8.80;6.77;;;;;;;22.85;69.63;97067.44;4936249;29;20035;-80
2023/08/20 01:11:28;;;;;;;8.75;6.60;;;;;;;22.82;69.68;97063.41;4935889;29;20275;-79
2023/08/20 01:13:59;;;;;;;10.10;7.20;;;;;;;22.78;69.66;97061.50;4935152;29;20080;-80
2023/08/20 01:16:28;;;;;;;10.63;7.35;;;;;;;22.75;70.08;97064.66;4935099;29;20048;-80
2023/08/20 01:19:00;;;;;;;8.32;7.38;;;;;;;22.71;70.38;97059.03;4918872;29;20052;-80
2023/08/20 01:21:42;;;;;;;11.65;7.60;;;;;;;22.74;70.65;97058.53;4934942;29;20066;-80
2023/08/20 01:24:27;;;;;;;8.70;7.03;;;;;;;22.75;70.60;97060.13;4932693;29;20056;-81
2023/08/20 01:27:22;;;;;;;10.25;7.65;;;;;;;22.77;70.64;97059.91;4934875;29;20086;-80
2023/08/20 01:29:54;;;;;;;8.30;7.30;;;;;;;22.77;70.33;97063.34;4918596;29;20086;-80
2023/08/20 01:32:26;;;;;;;8.25;7.45;;;;;;;22.79;70.47;97063.13;4935255;29;20120;-80
2023/08/20 01:34:58;;;;;;;11.80;7.32;;;;;;;22.81;70.49;97066.31;4939164;29;20044;-80
2023/08/20 01:37:30;;;;;;;10.88;7.05;;;;;;;22.80;70.47;97064.69;4938506;29;20048;-80
2023/08/20 01:40:03;;;;;;;8.45;6.72;;;;;;;22.78;70.58;97070.28;4937770;29;20056;-80
2023/08/20 01:42:33;;;;;;;10.45;7.32;;;;;;;22.74;70.53;97068.34;4936786;29;20052;-80
2023/08/20 01:45:07;;;;;;;10.27;7.10;;;;;;;22.73;70.92;97069.41;4936893;29;20072;-80
2023/08/20 01:47:37;;;;;;;7.70;6.90;;;;;;;22.72;70.91;97075.78;4936019;29;20052;-80
2023/08/20 01:50:08;;;;;;;8.77;6.55;;;;;;;22.74;70.53;97079.00;4937195;29;20079;-80
2023/08/20 01:52:39;;;;;;;12.80;7.90;;;;;;;22.79;70.83;97079.06;4936415;29;20056;-80
2023/08/20 01:55:18;;;;;;;7.85;7.03;;;;;;;22.86;70.27;97076.22;4936857;29;20076;-80
2023/08/20 01:57:48;;;;;;;;;;;;;;;22.90;70.42;97080.78;4938013;29;20092;-80
2023/08/20 02:00:23;;;;;;;8.73;6.78;;;;;;;22.99;69.98;97079.28;4938232;29;19923;-81
2023/08/20 02:02:54;;;;;;;10.80;7.18;;;;;;;23.06;69.43;97086.31;4932438;29;20060;-80
2023/08/20 02:05:25;;;;;;;8.90;6.95;;;;;;;23.07;69.68;97085.25;4931661;29;20048;-81
2023/08/20 02:07:57;;;;;;;8.15;7.05;;;;;;;23.08;69.36;97084.22;4929502;29;20526;-80
2023/08/20 02:10:28;;;;;;;10.55;6.95;;;;;;;23.10;69.54;97090.88;4913658;29;20076;-80
2023/08/20 02:12:57;;;;;;;9.70;6.85;;;;;;;23.10;69.64;97079.44;4932965;29;20060;-80
2023/08/20 02:15:36;;;;;;;12.77;7.13;;;;;;;23.04;69.64;97082.03;4944392;29;20036;-81
2023/08/20 02:18:10;;;;;;;8.63;7.00;;;;;;;23.03;69.75;97085.75;4941707;29;20055;-80
2023/08/20 02:20:43;;;;;;;9.50;6.95;;;;;;;22.98;69.74;97087.50;4933501;29;20067;-80
2023/08/20 02:23:15;;;;;;;10.32;7.20;;;;;;;22.89;69.86;97083.69;4915266;29;20060;-80
2023/08/20 02:25:45;;;;;;;;;;;;;;;22.84;70.02;97081.78;4933310;29;20502;-80
2023/08/20 02:28:24;;;;;;;8.57;7.75;;;;;;;22.86;70.37;97086.84;4934193;29;19947;-81
2023/08/20 02:30:59;;;;;;;8.95;7.35;;;;;;;22.91;70.50;97094.88;4933749;29;20056;-80
2023/08/20 02:33:31;;;;;;;9.02;7.05;;;;;;;22.95;70.53;97094.13;4916337;29;20502;-80
2023/08/20 02:36:04;;;;;;;11.73;7.00;;;;;;;23.01;70.23;97097.69;4932688;29;20135;-81
2023/08/20 02:38:35;;;;;;;9.75;6.80;;;;;;;23.03;70.26;97095.59;4932771;29;20112;-80
2023/08/20 02:41:06;;;;;;;8.82;7.00;;;;;;;23.03;69.80;97091.06;4913729;29;20052;-80
2023/08/20 02:43:36;;;;;;;9.50;6.43;;;;;;;23.00;69.96;97094.25;4929946;29;20433;-81
2023/08/20 02:46:08;;;;;;;8.68;7.05;;;;;;;22.95;70.36;97088.81;4929784;29;20048;-83
2023/08/20 02:48:40;;;;;;;9.60;7.63;;;;;;;22.88;70.44;97088.22;4931476;29;20058;-83
2023/08/20 02:51:20;;;;;;;;;;;;;;;22.84;70.20;97095.06;4932629;29;20319;-83
2023/08/20 02:53:51;;;;;;;8.90;6.93;;;;;;;22.79;70.67;97089.72;4924415;29;19923;-80
2023/08/20 02:56:21;;;;;;;9.38;7.55;;;;;;;22.79;70.58;97089.72;4929454;29;20056;-80
2023/08/20 02:58:52;;;;;;;8.10;7.38;;;;;;;22.82;71.08;97083.88;4932018;29;20482;-80
2023/08/20 03:01:26;;;;;;;10.68;7.45;;;;;;;22.86;70.79;97081.53;4931839;29;20104;-80
2023/08/20 03:03:57;;;;;;;9.68;7.28;;;;;;;22.88;70.59;97082.88;4916346;29;20055;-81
2023/08/20 03:06:26;;;;;;;7.93;7.03;;;;;;;22.89;70.73;97073.84;4932080;29;20059;-80
2023/08/20 03:08:57;;;;;;;9.57;7.97;;;;;;;22.86;70.56;97079.69;4932117;29;20470;-80
2023/08/20 03:11:27;;;;;;;8.20;7.35;;;;;;;22.90;70.99;97074.69;4931496;29;20055;-80
2023/08/20 03:13:57;;;;;;;7.78;6.80;;;;;;;22.96;70.35;97079.00;4932338;29;20052;-80
2023/08/20 03:26:41;;;;;;;8.10;7.20;;;;;;;23.10;70.38;97074.13;4919158;29;20063;-84
2023/08/20 03:29:11;;;;;;;9.27;7.05;;;;;;;23.11;69.96;97079.19;4930112;29;20160;-83
2023/08/20 03:31:43;;;;;;;9.10;7.25;;;;;;;23.11;70.18;97079.19;4926515;29;20047;-83
2023/08/20 03:34:14;;;;;;;8.93;7.85;;;;;;;23.11;69.91;97075.72;4941700;29;20032;-83
2023/08/20 03:36:46;;;;;;;10.95;7.75;;;;;;;23.11;70.36;97086.34;4941308;29;20048;-83
2023/08/20 03:39:15;;;;;;;10.73;8.00;;;;;;;23.09;70.30;97078.63;4935526;29;20056;-83
2023/08/20 03:41:50;;;;;;;7.97;6.85;;;;;;;23.12;70.77;97080.00;4929381;29;20052;-83
2023/08/20 03:44:20;;;;;;;8.88;7.20;;;;;;;23.14;70.31;97081.34;4930669;29;20075;-83
2023/08/20 03:46:52;;;;;;;8.15;7.35;;;;;;;23.19;70.01;97075.28;4932042;29;20052;-83
2023/08/20 03:49:23;;;;;;;11.70;7.30;;;;;;;23.19;69.29;97078.72;4931590;29;20055;-83
2023/08/20 03:51:54;;;;;;;9.52;7.72;;;;;;;23.13;69.81;97078.94;4915459;29;20060;-83
2023/08/20 03:54:23;;;;;;;7.80;6.80;;;;;;;23.03;70.52;97064.47;4929887;29;20080;-83
2023/08/20 03:56:52;;;;;;;12.48;7.78;;;;;;;23.00;70.62;97074.78;4930829;29;20080;-83
2023/08/20 03:59:28;;;;;;;9.32;7.40;;;;;;;22.97;70.84;97076.06;4932171;29;20084;-83
2023/08/20 04:01:58;;;;;;;11.48;8.18;;;;;;;22.93;70.86;97074.97;4917077;29;20052;-81
2023/08/20 04:04:25;;;;;;;11.10;7.35;;;;;;;22.90;71.14;97080.00;4917085;29;20107;-82
2023/08/20 04:06:53;;;;;;;8.73;7.75;;;;;;;22.84;70.99;97071.13;4916958;29;20091;-81
2023/08/20 04:09:21;;;;;;;8.75;7.32;;;;;;;22.79;71.25;97073.75;4917250;29;20087;-81
2023/08/20 04:11:49;;;;;;;12.07;8.25;;;;;;;22.74;71.43;97068.34;4916620;29;20056;-81
2023/08/20 04:14:17;;;;;;;11.98;8.32;;;;;;;22.65;71.63;97067.19;4916822;29;20641;-82
2023/08/20 04:16:45;;;;;;;9.55;7.82;;;;;;;22.55;72.29;97065.22;4916891;29;20169;-81
2023/08/20 04:19:14;;;;;;;9.45;8.15;;;;;;;22.47;72.96;97076.28;4916773;29;20506;-81
2023/08/20 04:21:42;;;;;;;8.75;7.70;;;;;;;22.41;73.01;97062.09;4916350;29;20083;-81
2023/08/20 04:24:09;;;;;;;9.25;7.85;;;;;;;22.38;73.49;97068.72;4916662;29;20502;-81
2023/08/20 04:26:37;;;;;;;10.88;8.40;;;;;;;22.40;73.58;97077.25;4916722;29;20065;-81
2023/08/20 04:29:05;;;;;;;9.15;8.25;;;;;;;22.43;73.98;97075.94;4916811;29;20112;-81
2023/08/20 04:31:33;;;;;;;9.98;8.70;;;;;;;22.48;73.52;97083.19;4916434;29;20052;-81
2023/08/20 04:34:00;;;;;;;12.77;8.85;;;;;;;22.51;73.56;97086.16;4916138;29;20532;-81
2023/08/20 04:36:29;;;;;;;11.15;8.40;;;;;;;22.50;73.79;97089.88;4916473;29;20553;-82
2023/08/20 04:38:57;;;;;;;10.90;8.95;;;;;;;22.47;73.27;97092.22;4916308;29;20111;-81
2023/08/20 04:41:25;;;;;;;10.40;8.23;;;;;;;22.41;73.72;97094.00;4916292;29;20056;-81
2023/08/20 04:43:52;;;;;;;9.48;8.25;;;;;;;22.40;73.99;97100.38;4915973;29;20506;-81
2023/08/20 04:46:20;;;;;;;10.60;8.55;;;;;;;22.37;74.05;97100.88;4916109;29;20487;-81
2023/08/20 04:48:48;;;;;;;9.38;8.43;;;;;;;22.36;74.40;97099.25;4916267;29;20070;-81
2023/08/20 04:51:15;;;;;;;10.18;8.40;;;;;;;22.33;73.92;97110.38;4916075;29;20103;-81
2023/08/20 04:53:44;;;;;;;9.55;7.88;;;;;;;22.31;74.48;97115.94;4916506;29;20107;-81
2023/08/20 04:56:12;;;;;;;9.77;8.18;;;;;;;22.33;74.18;97123.66;4916295;29;20059;-81
2023/08/20 04:58:42;;;;;;;9.98;8.82;;;;;;;22.35;74.49;97118.91;4916661;29;20487;-81
2023/08/20 05:01:10;;;;;;;9.48;8.18;;;;;;;22.32;73.92;97119.38;4916292;29;20506;-78
2023/08/20 05:03:37;;;;;;;9.82;8.60;;;;;;;22.30;73.92;97130.28;4918053;29;20048;-79
2023/08/20 05:06:05;;;;;;;10.25;8.75;;;;;;;22.28;74.47;97126.22;4917885;29;20139;-79
2023/08/20 05:08:33;;;;;;;11.52;8.77;;;;;;;22.32;73.96;97116.72;4916575;29;20048;-79
2023/08/20 05:11:03;;;;;;;12.07;8.60;;;;;;;22.36;74.11;97126.63;4920858;29;20475;-79
2023/08/20 05:13:30;;;;;;;13.63;8.95;;;;;;;22.44;74.32;97130.72;4930503;29;20056;-80
2023/08/20 05:16:18;;;;;;;9.20;8.30;;;;;;;22.51;73.42;97131.34;4929839;29;20052;-79
2023/08/20 05:21:42;;;;;;;9.95;7.47;;;;;;;22.60;73.13;97129.88;5155310;23;20528;-77
2023/08/20 05:24:09;;;;;;;9.02;8.07;;;;;;;22.62;72.80;97135.75;4934734;29;20052;-78
2023/08/20 05:26:38;;;;;;;9.23;7.15;;;;;;;22.59;73.03;97130.16;4934772;29;20579;-77
2023/08/20 05:29:06;;;;;;;13.55;8.50;;;;;;;22.56;73.06;97122.66;4935520;29;20052;-78
2023/08/20 05:31:34;;;;;;;9.20;8.30;;;;;;;22.48;73.76;97125.72;4936093;29;20087;-77
2023/08/20 05:34:02;;;;;;;10.48;8.30;;;;;;;22.44;74.01;97120.09;4935024;29;20048;-76
2023/08/20 05:36:30;;;;;;;10.50;8.82;;;;;;;22.44;74.03;97119.31;4934520;29;20433;-77
2023/08/20 05:38:57;;;;;;;12.65;8.27;;;;;;;22.47;74.12;97116.94;4934585;29;20470;-77
2023/08/20 05:41:25;;;;;;;10.02;7.97;;;;;;;22.47;74.19;97119.59;4934418;29;20090;-77
2023/08/20 05:43:54;;;;;;;10.48;8.30;;;;;;;22.46;74.49;97118.00;4932232;29;20055;-77
2023/08/20 05:46:21;;;;;;;11.68;8.43;;;;;;;22.46;74.74;97118.00;4915822;29;20104;-76
2023/08/20 05:48:49;;;;;;;10.45;8.55;;;;;;;22.48;74.73;97121.22;4921427;29;20051;-76
2023/08/20 05:51:17;;;;;;;14.05;9.50;;;;;;;22.52;74.85;97105.56;4934226;29;20055;-77
2023/08/20 05:53:44;;;;;;;8.45;7.65;;;;;;;22.55;74.82;97113.88;4934030;29;20510;-76
2023/08/20 05:56:12;;;;;;;13.35;8.15;;;;;;;22.61;74.44;97109.44;4934427;29;20051;-77
2023/08/20 05:58:39;;;;;;;11.75;8.43;;;;;;;22.65;74.50;97104.41;4934679;29;20108;-77
2023/08/20 06:01:08;;;;;;;8.98;8.13;;;;;;;22.66;75.11;97106.03;4932226;29;20044;-76
2023/08/20 06:03:36;;;;;;;9.70;8.65;;;;;;;22.70;75.14;97109.81;4931188;29;20103;-76
2023/08/20 06:06:04;;;;;;;10.65;8.95;;;;;;;22.81;75.22;97111.53;4926006;29;20056;-76
2023/08/20 06:08:35;;;;;;;12.23;8.70;;;;;;;22.86;74.98;97106.28;4916238;29;20509;-77
2023/08/20 06:11:03;;;;;;;15.55;7.72;;;;;;;22.89;75.20;97105.75;4921316;29;20092;-77
2023/08/20 06:13:30;;;;;;;12.88;9.38;;;;;;;22.92;74.59;97115.94;4933505;29;20502;-76
2023/08/20 06:15:58;;;;;;;13.95;9.38;;;;;;;22.96;74.78;97106.41;4928217;29;20429;-76
2023/08/20 06:18:27;;;;;;;10.73;8.88;;;;;;;23.02;74.63;97115.25;4919810;29;20051;-77
2023/08/20 06:20:54;;;;;;;10.80;8.60;;;;;;;23.10;74.63;97114.03;4942722;29;20076;-77
2023/08/20 06:23:22;;;;;;;9.90;8.57;;;;;;;23.17;74.45;97122.63;4943517;29;20040;-77
2023/08/20 06:26:09;;;;;;;9.75;8.77;;;;;;;23.24;74.39;97121.38;4944968;29;20072;-77
2023/08/20 06:28:37;;;;;;;9.77;8.85;;;;;;;23.32;74.18;97125.44;4938014;29;20052;-77
2023/08/20 06:31:05;;;;;;;10.48;9.18;;;;;;;23.40;74.35;97135.66;4943498;29;20051;-77
2023/08/20 06:33:34;;;;;;;11.57;8.80;;;;;;;23.50;74.17;97137.59;4937895;29;20083;-76
2023/08/20 06:36:01;;;;;;;11.25;9.27;;;;;;;23.59;73.69;97148.59;4936109;29;20044;-78
2023/08/20 06:38:29;;;;;;;10.00;8.57;;;;;;;23.67;73.34;97148.16;4937593;29;20056;-77
2023/08/20 06:40:58;;;;;;;13.00;9.63;;;;;;;23.75;73.22;97150.41;4935392;29;20173;-77
2023/08/20 06:43:25;;;;;;;9.80;8.80;;;;;;;23.84;73.05;97164.84;4920312;29;20052;-77
2023/08/20 06:45:53;;;;;;;12.00;8.98;;;;;;;23.95;72.58;97167.63;4929557;29;20122;-77
2023/08/20 06:48:22;;;;;;;11.88;8.32;;;;;;;24.06;72.72;97169.31;4937357;29;20050;-76
2023/08/20 06:50:51;;;;;;;9.65;7.95;;;;;;;24.16;72.25;97172.06;4929409;29;20498;-77
2023/08/20 06:53:18;;;;;;;11.70;8.82;;;;;;;24.25;72.12;97165.19;4918058;29;20101;-76
2023/08/20 06:55:46;;;;;;;15.48;10.65;;;;;;;24.34;71.68;97167.38;4918044;29;20056;-77
2023/08/20 06:58:13;;;;;;;11.82;9.93;;;;;;;24.44;71.51;97156.78;4918072;29;20044;-77
2023/08/20 07:00:41;;;;;;;12.63;9.15;;;;;;;24.51;70.85;97157.41;4923171;29;20051;-77
2023/08/20 07:03:09;;;;;;;12.48;9.55;;;;;;;24.59;70.94;97162.22;4936861;29;20120;-75
2023/08/20 07:05:36;;;;;;;12.77;9.25;;;;;;;24.68;70.70;97152.66;4917786;29;20058;-77
2023/08/20 07:08:06;;;;;;;10.23;8.85;;;;;;;24.78;70.56;97146.59;4917715;29;20419;-77
2023/08/20 07:10:34;;;;;;;10.13;8.65;;;;;;;24.88;70.22;97144.00;4912878;29;20103;-77
2023/08/20 07:13:02;;;;;;;12.45;8.43;;;;;;;25.00;69.60;97138.41;4935870;29;20469;-78
2023/08/20 07:15:30;;;;;;;9.65;8.65;;;;;;;25.12;68.89;97143.53;4952913;28;20390;-79
2023/08/20 07:17:58;;;;;;;11.43;9.43;;;;;;;25.24;69.19;97138.00;4954659;29;20334;-78
2023/08/20 07:20:33;;;;;;;9.43;8.48;;;;;;;25.38;69.39;97152.44;4945985;29;20048;-78
2023/08/20 07:23:02;;;;;;;10.98;9.18;;;;;;;25.46;68.39;97146.59;4958213;29;20047;-79
2023/08/20 07:25:33;;;;;;;11.65;9.18;;;;;;;25.57;68.37;97152.75;4946650;28;20429;-79
2023/08/20 07:28:00;;;;;;;12.13;8.80;;;;;;;25.68;67.73;97153.56;4946525;29;20054;-79
2023/08/20 07:30:29;;;;;;;12.82;9.70;;;;;;;25.79;66.97;97155.19;4952117;29;20047;-79
2023/08/20 07:32:57;;;;;;;11.82;8.68;;;;;;;25.89;66.65;97165.13;4959030;29;20048;-79
2023/08/20 07:35:32;;;;;;;9.82;8.82;;;;;;;25.98;66.66;97165.41;4961111;28;20042;-79
2023/08/20 07:38:00;;;;;;;9.93;8.55;;;;;;;26.09;66.32;97175.03;4961955;28;20076;-79
2023/08/20 07:40:27;;;;;;;9.75;8.73;;;;;;;26.20;65.62;97170.47;4945618;28;20039;-77
2023/08/20 07:42:57;;;;;;;11.93;8.82;;;;;;;26.31;65.70;97166.72;4952459;28;20035;-79
2023/08/20 07:45:24;;;;;;;10.77;8.75;;;;;;;26.44;65.70;97176.06;4947578;28;20045;-79
2023/08/20 07:47:52;;;;;;;9.05;8.18;;;;;;;26.57;65.32;97167.50;4960377;28;20122;-79
2023/08/20 07:50:20;;;;;;;10.15;7.75;;;;;;;26.73;65.26;97178.19;4956923;28;20091;-79
2023/08/20 07:52:48;;;;;;;11.57;8.25;;;;;;;26.87;64.41;97173.84;4942438;29;20036;-81
2023/08/20 07:55:15;;;;;;;10.50;8.40;;;;;;;27.01;64.29;97174.09;4959704;28;20067;-80
2023/08/20 07:57:43;;;;;;;9.65;8.75;;;;;;;27.17;64.13;97178.28;4959149;28;20055;-79
2023/08/20 08:00:14;;;;;;;9.10;8.00;;;;;;;27.30;64.15;97176.94;4955970;28;20080;-80
2023/08/20 08:02:42;;;;;;;9.93;8.05;;;;;;;27.45;63.64;97179.53;4959794;28;20039;-81
2023/08/20 08:05:10;;;;;;;11.38;7.63;;;;;;;27.60;62.63;97170.59;4955548;28;20087;-80
2023/08/20 08:07:38;;;;;;;12.68;7.60;;;;;;;27.77;62.86;97175.59;4958775;28;20045;-81
2023/08/20 08:10:07;;;;;;;13.55;8.98;;;;;;;27.90;62.15;97175.00;4955331;29;20047;-79
2023/08/20 08:12:34;;;;;;;9.70;8.00;;;;;;;28.03;62.09;97186.97;4941992;29;20056;-80
2023/08/20 08:15:02;;;;;;;10.80;8.55;;;;;;;28.14;61.57;97184.97;4950781;29;20056;-81
2023/08/20 08:17:31;;;;;;;14.77;8.02;;;;;;;28.29;60.67;97184.06;4936793;29;20079;-80
2023/08/20 08:19:59;;;;;;;9.00;7.20;;;;;;;28.43;60.75;97178.84;4949790;29;20059;-80
2023/08/20 08:22:27;;;;;;;13.57;8.10;;;;;;;28.54;59.90;97183.84;4951290;29;20071;-81
2023/08/20 08:24:54;;;;;;;12.60;8.63;;;;;;;28.61;59.82;97188.88;4953269;28;20028;-82
2023/08/20 08:27:22;;;;;;;8.90;7.55;;;;;;;28.70;59.20;97192.53;4952420;28;20056;-82
2023/08/20 08:29:51;;;;;;;11.70;7.95;;;;;;;28.79;58.69;97190.03;4934747;29;20178;-81
2023/08/20 08:32:18;;;;;;;9.65;7.47;;;;;;;28.89;58.54;97189.94;4935090;29;20111;-81
2023/08/20 08:34:47;;;;;;;12.75;7.78;;;;;;;29.02;58.50;97191.13;4938140;29;20142;-79
2023/08/20 08:37:15;;;;;;;9.88;8.27;;;;;;;29.12;58.31;97198.28;4939895;29;20080;-80
2023/08/20 08:39:43;;;;;;;9.00;7.03;;;;;;;29.20;57.49;97191.50;4929386;29;20047;-80
2023/08/20 08:42:12;;;;;;;9.98;7.30;;;;;;;29.30;57.93;97191.34;4941147;29;20571;-81
2023/08/20 08:44:40;;;;;;;9.10;7.47;;;;;;;29.43;57.75;97181.78;4941136;29;20525;-82
2023/08/20 08:47:08;;;;;;;10.95;7.53;;;;;;;29.55;57.28;97182.16;4941239;29;20079;-81
2023/08/20 08:49:36;;;;;;;10.50;7.57;;;;;;;29.67;57.25;97185.22;4934669;29;20072;-80
2023/08/20 08:52:06;;;;;;;10.75;7.45;;;;;;;29.76;56.46;97196.16;4923133;29;20120;-80
2023/08/20 08:54:34;;;;;;;12.93;7.78;;;;;;;29.88;56.20;97203.75;4923401;29;20060;-79
2023/08/20 08:57:02;;;;;;;11.00;7.95;;;;;;;29.98;56.11;97200.94;4923040;29;20051;-80
2023/08/20 08:59:30;;;;;;;7.85;7.00;;;;;;;30.06;55.31;97205.63;4922901;29;20072;-80
2023/08/20 09:01:57;;;;;;;10.57;8.10;;;;;;;30.18;55.56;97202.50;4922642;29;20558;-79
2023/08/20 09:04:25;;;;;;;10.88;8.27;;;;;;;30.29;55.09;97209.34;4923351;29;20482;-79
2023/08/20 09:06:56;;;;;;;9.43;7.15;;;;;;;30.39;55.06;97206.47;4924171;29;20056;-78
2023/08/20 09:09:30;;;;;;;11.85;8.50;;;;;;;30.51;54.98;97205.22;4921299;29;20048;-80
2023/08/20 09:11:57;;;;;;;8.65;7.47;;;;;;;30.60;54.00;97201.53;4924511;29;20052;-81
2023/08/20 09:14:29;;;;;;;10.65;7.68;;;;;;;30.66;53.91;97204.94;4923005;29;20048;-81
2023/08/20 09:16:57;;;;;;;12.68;8.27;;;;;;;30.69;53.65;97207.00;4923564;29;20056;-80
2023/08/20 09:19:28;;;;;;;9.00;7.32;;;;;;;30.72;53.11;97209.13;4922902;29;20068;-79
2023/08/20 09:22:00;;;;;;;8.82;7.90;;;;;;;30.79;52.71;97214.91;4922823;29;20052;-81
2023/08/20 09:24:34;;;;;;;8.30;7.43;;;;;;;30.88;53.09;97203.50;4923359;29;20056;-80
2023/08/20 09:27:04;;;;;;;11.75;6.65;;;;;;;30.94;52.40;97213.03;4923217;29;20087;-81
2023/08/20 09:29:34;;;;;;;9.00;7.10;;;;;;;31.04;52.26;97207.47;4941734;29;20474;-80
2023/08/20 09:32:02;;;;;;;9.80;7.47;;;;;;;31.15;51.98;97208.84;4942748;29;20064;-80
2023/08/20 09:34:39;;;;;;;12.70;7.35;;;;;;;31.24;51.56;97200.88;4934105;29;20067;-81
2023/08/20 09:37:09;;;;;;;7.97;7.20;;;;;;;31.34;50.88;97206.06;4934488;29;20083;-80
2023/08/20 09:39:39;;;;;;;10.48;6.97;;;;;;;31.44;51.03;97215.06;4922185;29;20051;-80
2023/08/20 09:42:07;;;;;;;12.98;7.32;;;;;;;31.53;50.67;97214.06;4914775;29;20056;-80
2023/08/20 09:44:36;;;;;;;10.20;6.95;;;;;;;31.65;49.65;97218.13;4915623;29;20419;-81
2023/08/20 09:47:08;;;;;;;7.68;6.38;;;;;;;31.67;49.54;97215.91;4915935;29;20064;-81
2023/08/20 09:49:38;;;;;;;7.30;6.38;;;;;;;31.78;49.87;97214.59;4917413;29;20044;-80
2023/08/20 09:52:08;;;;;;;9.07;6.40;;;;;;;31.88;48.81;97214.38;4916981;29;20056;-81
2023/08/20 09:54:49;;;;;;;7.68;6.50;;;;;;;31.91;48.87;97224.53;4923402;29;20473;-81
2023/08/20 09:57:33;;;;;;;12.18;6.35;;;;;;;32.02;47.88;97220.53;4930019;29;20485;-81
2023/08/20 10:00:02;;;;;;;13.60;6.50;;;;;;;32.16;48.54;97211.56;4933516;29;20040;-81
2023/08/20 10:02:30;;;;;;;8.70;6.75;;;;;;;32.29;47.77;97210.69;4933008;29;20044;-81
2023/08/20 10:05:01;;;;;;;7.97;6.53;;;;;;;32.41;47.17;97202.84;4927682;29;20510;-81
2023/08/20 10:07:32;;;;;;;6.82;6.25;;;;;;;32.52;47.03;97216.09;4937825;29;20477;-81
2023/08/20 10:10:04;;;;;;;6.60;5.95;;;;;;;32.61;47.38;97209.66;4931637;29;20052;-81
2023/08/20 10:12:33;;;;;;;6.07;5.47;;;;;;;32.69;46.32;97207.28;4943403;29;20074;-81
2023/08/20 10:15:01;;;;;;;6.82;5.88;;;;;;;32.72;46.41;97207.47;4927322;29;20574;-78
2023/08/20 10:17:31;;;;;;;7.18;5.47;;;;;;;32.78;46.05;97205.44;4929138;29;20060;-81
2023/08/20 10:20:00;;;;;;;7.07;6.20;;;;;;;32.78;45.51;97208.16;4889779;29;1020384;-81
2023/08/20 10:22:34;;;;;;;9.15;6.30;;;;;;;32.72;46.14;97203.97;4937954;29;20502;-80
2023/08/20 10:25:07;;;;;;;8.48;5.80;;;;;;;32.77;45.45;97210.03;4938327;29;20052;-81
2023/08/20 10:27:37;;;;;;;8.07;5.93;;;;;;;32.78;44.98;97198.13;4949097;29;20110;-80
2023/08/20 10:30:15;;;;;;;6.15;5.45;;;;;;;32.83;45.80;97203.38;4948837;29;20110;-79
2023/08/20 10:32:48;;;;;;;7.55;5.90;;;;;;;32.88;44.95;97201.66;4936725;29;20066;-80
2023/08/20 10:35:18;;;;;;;8.20;5.80;;;;;;;32.93;45.04;97204.22;4946267;29;20054;-79
2023/08/20 10:38:03;;;;;;;8.48;5.97;;;;;;;32.98;45.04;97201.38;4932813;29;20123;-79
2023/08/20 10:40:52;;;;;;;7.30;5.68;;;;;;;33.01;45.21;97198.03;4932153;29;20055;-80
2023/08/20 10:43:30;;;;;;;9.15;5.15;;;;;;;33.08;45.10;97209.22;4927733;29;20134;-80
2023/08/20 10:46:08;;;;;;;6.43;5.82;;;;;;;33.10;45.05;97201.59;4928866;29;20052;-80
2023/08/20 10:48:39;;;;;;;8.48;5.55;;;;;;;33.10;45.37;97193.50;4928978;29;20056;-79
2023/08/20 10:51:11;;;;;;;8.80;5.30;;;;;;;33.13;44.79;97203.69;4927964;29;20052;-80
2023/08/20 10:53:40;;;;;;;5.65;4.97;;;;;;;33.10;44.21;97198.91;4933504;29;20063;-79
2023/08/20 10:56:13;;;;;;;6.55;5.40;;;;;;;33.13;44.46;97194.78;4944335;29;20084;-79
2023/08/20 10:58:46;;;;;;;9.55;5.32;;;;;;;33.21;43.80;97194.78;4929716;29;20052;-80
2023/08/20 11:01:20;;;;;;;7.18;5.03;;;;;;;33.22;43.65;97185.59;4930984;29;20111;-79
2023/08/20 11:03:49;;;;;;;10.10;6.18;;;;;;;33.22;43.85;97185.59;4943299;29;20050;-79
2023/08/20 11:06:18;;;;;;;10.30;6.10;;;;;;;33.22;44.02;97188.28;4933708;29;20055;-80
2023/08/20 11:08:46;;;;;;;9.25;5.53;;;;;;;33.33;44.78;97185.28;4932472;29;20057;-80
2023/08/20 11:11:16;;;;;;;7.75;6.00;;;;;;;33.37;43.47;97180.84;4943853;29;20052;-79
2023/08/20 11:13:43;;;;;;;10.63;5.63;;;;;;;33.37;43.46;97180.84;4938575;29;20111;-83
2023/08/20 11:16:11;;;;;;;6.47;4.85;;;;;;;33.40;43.54;97180.22;4942503;29;20059;-80
2023/08/20 11:18:39;;;;;;;9.88;6.13;;;;;;;33.44;42.71;97181.16;4943999;29;20055;-80
2023/08/20 11:21:08;;;;;;;6.45;5.85;;;;;;;33.48;42.63;97178.59;4933294;29;20052;-79
2023/08/20 11:23:39;;;;;;;5.30;4.80;;;;;;;33.50;42.16;97181.78;4952821;29;20044;-81
2023/08/20 11:26:08;;;;;;;7.43;4.93;;;;;;;33.53;43.35;97179.25;4953015;29;20062;-81
2023/08/20 11:28:37;;;;;;;8.20;5.13;;;;;;;33.55;42.89;97168.94;4952987;29;20059;-81
2023/08/20 11:31:05;;;;;;;6.30;5.65;;;;;;;33.57;42.39;97166.69;4951429;29;20047;-82
2023/08/20 11:33:32;;;;;;;6.65;4.93;;;;;;;33.58;43.17;97176.41;4952959;29;20056;-81
2023/08/20 11:36:01;;;;;;;8.88;5.68;;;;;;;33.63;42.47;97173.56;4952752;29;20076;-81
2023/08/20 11:38:30;;;;;;;9.68;5.28;;;;;;;33.65;42.04;97165.94;4954142;29;20076;-81
2023/08/20 11:40:59;;;;;;;8.80;4.85;;;;;;;33.72;42.82;97167.34;4956235;29;20059;-81
2023/08/20 11:43:28;;;;;;;7.30;5.63;;;;;;;33.79;42.30;97164.97;4955708;29;20055;-81
2023/08/20 11:45:57;;;;;;;8.57;5.60;;;;;;;33.80;41.92;97166.56;4956090;29;20052;-82
2023/08/20 11:48:25;;;;;;;7.88;5.72;;;;;;;33.80;42.05;97161.16;4960598;28;20103;-82
2023/08/20 11:50:52;;;;;;;7.68;5.30;;;;;;;33.80;41.40;97161.16;4960914;28;20047;-82
2023/08/20 11:53:24;;;;;;;6.43;5.57;;;;;;;33.77;41.72;97162.59;4960600;28;20056;-81
2023/08/20 11:55:52;;;;;;;7.82;5.00;;;;;;;33.78;42.90;97160.66;4960441;28;20064;-82
2023/08/20 11:58:20;;;;;;;5.65;5.10;;;;;;;33.78;42.11;97160.66;4960252;28;20059;-81
2023/08/20 12:00:50;;;;;;;10.38;5.32;;;;;;;33.79;42.36;97163.06;4960073;28;20036;-82